Time;durP1;ratioP1;P1;durP2;ratioP2;P2;SDS_P1;SDS_P2;PMS_P1;PMS_P2;Temp;Humidity;BMP_temperature;BMP_pressure;BME280_temperature;BME280_humidity;BME280_pressure;Samples;Min_cycle;Max_cycle;Signal;HPM_P1;HPM_P2
2021/03/11 00:00:29;;;;;;;9.75;7.30;;;9.50;31.20;;;;;;5048425;28;20199;-78
2021/03/11 00:02:55;;;;;;;10.93;6.90;;;9.60;30.90;;;;;;5047610;28;20223;-79
2021/03/11 00:05:23;;;;;;;9.88;7.50;;;9.60;31.30;;;;;;5050293;28;20203;-77
2021/03/11 00:07:50;;;;;;;13.18;7.13;;;9.60;31.30;;;;;;5044886;28;20203;-78
2021/03/11 00:10:16;;;;;;;12.95;8.32;;;9.50;31.80;;;;;;5041992;28;20226;-81
2021/03/11 00:12:44;;;;;;;12.27;8.45;;;9.50;32.60;;;;;;5045707;28;20237;-78
2021/03/11 00:15:13;;;;;;;13.60;8.20;;;9.50;34.30;;;;;;5044621;28;20206;-79
2021/03/11 00:17:40;;;;;;;16.95;9.10;;;9.50;34.30;;;;;;5045245;28;20242;-78
2021/03/11 00:20:09;;;;;;;13.35;7.28;;;9.40;35.40;;;;;;5046500;28;20227;-78
2021/03/11 00:22:36;;;;;;;9.40;7.25;;;9.40;35.30;;;;;;5048691;28;20416;-78
2021/03/11 00:25:04;;;;;;;8.52;6.93;;;9.30;35.10;;;;;;5051490;28;20211;-79
2021/03/11 00:27:31;;;;;;;9.85;6.85;;;9.30;35.10;;;;;;5054406;28;20211;-79
2021/03/11 00:29:57;;;;;;;15.38;7.93;;;9.40;36.20;;;;;;5053584;28;20223;-79
2021/03/11 00:32:24;;;;;;;11.35;7.18;;;9.30;36.10;;;;;;5052526;28;20211;-80
2021/03/11 00:34:51;;;;;;;10.65;7.25;;;9.30;36.50;;;;;;5053478;28;20211;-80
2021/03/11 00:37:17;;;;;;;10.68;6.50;;;9.20;36.40;;;;;;5050574;28;20214;-78
2021/03/11 00:39:44;;;;;;;11.85;6.10;;;9.30;36.10;;;;;;5054110;28;20211;-78
2021/03/11 00:42:11;;;;;;;8.27;5.57;;;9.30;36.60;;;;;;5055228;28;20194;-79
2021/03/11 00:44:37;;;;;;;8.18;5.45;;;9.30;35.60;;;;;;5056033;28;20221;-78
2021/03/11 00:47:05;;;;;;;8.70;5.72;;;9.30;34.90;;;;;;5055641;28;20206;-78
2021/03/11 00:49:33;;;;;;;6.68;4.72;;;9.40;35.00;;;;;;5056663;28;20203;-78
2021/03/11 00:52:00;;;;;;;8.80;5.25;;;9.40;35.00;;;;;;5057322;28;20252;-79
2021/03/11 00:54:27;;;;;;;5.50;4.10;;;9.50;35.10;;;;;;5056714;28;20221;-78
2021/03/11 00:56:53;;;;;;;5.63;4.53;;;9.50;35.20;;;;;;5056114;28;20222;-77
2021/03/11 00:59:20;;;;;;;8.10;4.50;;;9.50;35.00;;;;;;5057052;28;20183;-78
2021/03/11 01:01:49;;;;;;;6.80;4.32;;;9.50;34.60;;;;;;5056830;28;20199;-81
2021/03/11 01:04:16;;;;;;;5.85;4.35;;;9.50;34.30;;;;;;5056624;28;20211;-79
2021/03/11 01:06:43;;;;;;;5.95;4.32;;;9.50;34.10;;;;;;5056918;28;20199;-78
2021/03/11 01:09:10;;;;;;;7.53;4.55;;;9.50;34.00;;;;;;5056981;28;20229;-79
2021/03/11 01:11:37;;;;;;;6.63;4.72;;;9.50;34.00;;;;;;5055610;28;20227;-78
2021/03/11 01:14:03;;;;;;;6.07;4.65;;;9.50;34.00;;;;;;5054357;28;20227;-78
2021/03/11 01:16:30;;;;;;;4.82;3.80;;;9.60;33.80;;;;;;5052166;28;20214;-79
2021/03/11 01:18:56;;;;;;;9.13;4.32;;;9.60;33.50;;;;;;5048233;28;20214;-79
2021/03/11 01:21:23;;;;;;;6.03;4.25;;;9.60;34.10;;;;;;5047418;28;20222;-78
2021/03/11 01:23:51;;;;;;;3.97;3.58;;;9.70;32.90;;;;;;5052694;28;20227;-80
2021/03/11 01:26:17;;;;;;;4.95;3.88;;;9.70;33.30;;;;;;5056214;28;20207;-78
2021/03/11 01:28:44;;;;;;;4.57;3.63;;;9.70;32.90;;;;;;5058877;28;20246;-79
2021/03/11 01:31:10;;;;;;;5.55;3.65;;;9.60;33.30;;;;;;5055800;28;20230;-81
2021/03/11 01:33:37;;;;;;;8.27;4.30;;;9.60;33.50;;;;;;5038503;28;20317;-78
2021/03/11 01:36:08;;;;;;;4.75;3.50;;;9.60;33.60;;;;;;5050909;28;20207;-80
2021/03/11 01:38:34;;;;;;;4.75;3.63;;;9.60;33.70;;;;;;5058431;28;20199;-81
2021/03/11 01:41:02;;;;;;;4.47;3.65;;;9.60;33.80;;;;;;5058889;28;20287;-81
2021/03/11 01:43:28;;;;;;;5.45;3.53;;;9.60;33.80;;;;;;5055557;28;20292;-78
2021/03/11 01:45:55;;;;;;;4.22;3.20;;;9.60;33.70;;;;;;5058826;28;20211;-80
2021/03/11 01:48:21;;;;;;;4.07;2.80;;;9.50;33.80;;;;;;5056300;28;20199;-81
2021/03/11 01:50:48;;;;;;;4.30;3.55;;;9.50;33.90;;;;;;5055664;28;20227;-80
2021/03/11 01:53:15;;;;;;;4.75;3.15;;;9.50;33.30;;;;;;5056453;28;20731;-79
2021/03/11 01:55:42;;;;;;;3.22;2.50;;;9.50;33.40;;;;;;5057596;28;20225;-80
2021/03/11 01:58:09;;;;;;;5.00;2.80;;;9.50;33.20;;;;;;5058136;28;20191;-80
2021/03/11 02:00:36;;;;;;;6.30;2.40;;;9.60;33.30;;;;;;5058855;28;20195;-81
2021/03/11 02:03:05;;;;;;;2.85;2.42;;;9.60;32.80;;;;;;5058499;28;20239;-80
2021/03/11 02:05:32;;;;;;;3.65;2.90;;;9.60;33.00;;;;;;5058158;28;20206;-81
2021/03/11 02:07:58;;;;;;;3.05;2.72;;;9.60;33.00;;;;;;5058273;28;20195;-81
2021/03/11 02:10:26;;;;;;;6.18;2.70;;;9.70;33.00;;;;;;5058782;28;20223;-78
2021/03/11 02:13:09;;;;;;;3.05;2.28;;;9.70;33.00;;;;;;5057453;28;20249;-79
2021/03/11 02:15:42;;;;;;;5.30;2.80;;;9.70;33.90;;;;;;5056094;28;20274;-79
2021/03/11 02:18:16;;;;;;;4.88;3.30;;;9.70;32.90;;;;;;5056705;28;20215;-79
2021/03/11 02:21:01;;;;;;;3.97;3.25;;;9.70;32.80;;;;;;5050729;28;20192;-78
2021/03/11 02:23:53;;;;;;;5.95;3.03;;;9.70;32.70;;;;;;5057335;28;20214;-79
2021/03/11 02:26:32;;;;;;;5.82;3.28;;;9.70;32.70;;;;;;5059607;28;20249;-79
2021/03/11 02:29:03;;;;;;;4.00;3.20;;;9.80;32.70;;;;;;5057469;28;20210;-79
2021/03/11 02:31:33;;;;;;;4.05;3.20;;;9.70;32.60;;;;;;5056684;28;20196;-79
2021/03/11 02:34:01;;;;;;;6.75;4.10;;;9.70;32.70;;;;;;5057345;28;20225;-79
2021/03/11 02:36:28;;;;;;;6.82;4.47;;;9.70;33.10;;;;;;5055385;28;20214;-79
2021/03/11 02:38:56;;;;;;;8.20;5.25;;;9.70;34.50;;;;;;5052530;28;20219;-78
2021/03/11 02:41:25;;;;;;;8.30;5.28;;;9.70;35.20;;;;;;5043980;28;20230;-85
2021/03/11 02:43:52;;;;;;;7.68;4.70;;;9.60;35.20;;;;;;5056616;28;20257;-78
2021/03/11 02:46:20;;;;;;;8.25;5.72;;;9.60;35.80;;;;;;5054360;28;20207;-79
2021/03/11 02:48:50;;;;;;;7.55;5.75;;;9.60;35.00;;;;;;5057571;28;20203;-80
2021/03/11 02:51:17;;;;;;;12.02;6.85;;;9.60;34.80;;;;;;5056602;28;20483;-78
2021/03/11 02:53:43;;;;;;;10.43;7.03;;;9.60;34.80;;;;;;5055886;28;20211;-78
2021/03/11 02:56:11;;;;;;;9.48;6.60;;;9.70;34.40;;;;;;5056132;28;20209;-79
2021/03/11 02:58:40;;;;;;;8.57;6.30;;;9.70;34.40;;;;;;5057791;28;20198;-78
2021/03/11 03:01:08;;;;;;;10.07;6.00;;;9.70;34.50;;;;;;5046979;28;20249;-79
2021/03/11 03:03:36;;;;;;;12.80;7.72;;;9.70;33.90;;;;;;5041519;28;20586;-80
2021/03/11 03:06:04;;;;;;;12.35;7.45;;;9.80;33.40;;;;;;5038481;28;20243;-79
2021/03/11 03:08:31;;;;;;;10.25;7.55;;;9.80;33.50;;;;;;5027119;28;20227;-79
2021/03/11 03:10:59;;;;;;;10.98;7.65;;;9.80;33.10;;;;;;5030227;28;20247;-78
2021/03/11 03:13:26;;;;;;;11.20;7.10;;;9.90;33.00;;;;;;5025315;28;20224;-79
2021/03/11 03:15:56;;;;;;;10.45;7.40;;;9.90;33.00;;;;;;5028577;28;20204;-78
2021/03/11 03:18:23;;;;;;;11.23;7.22;;;10.00;31.40;;;;;;5034233;28;20301;-78
2021/03/11 03:20:52;;;;;;;10.90;7.75;;;10.00;31.10;;;;;;5038109;28;20225;-79
2021/03/11 03:23:20;;;;;;;13.35;7.68;;;10.10;31.10;;;;;;5038240;28;20212;-79
2021/03/11 03:25:47;;;;;;;11.52;7.38;;;10.10;31.20;;;;;;5036911;28;20223;-79
2021/03/11 03:28:14;;;;;;;11.88;7.97;;;10.10;31.10;;;;;;5031583;28;20208;-78
2021/03/11 03:30:40;;;;;;;11.88;7.53;;;10.20;30.90;;;;;;5038320;28;20289;-79
2021/03/11 03:33:07;;;;;;;12.40;7.95;;;10.10;30.80;;;;;;5035115;28;20268;-79
2021/03/11 03:35:33;;;;;;;15.23;7.93;;;10.20;30.70;;;;;;5020764;28;20219;-78
2021/03/11 03:38:03;;;;;;;10.35;7.35;;;10.20;30.90;;;;;;5020961;28;20720;-79
2021/03/11 03:40:30;;;;;;;14.43;8.00;;;10.20;31.30;;;;;;5029360;28;20200;-79
2021/03/11 03:43:05;;;;;;;11.50;6.80;;;10.20;31.40;;;;;;5021530;28;20326;-80
2021/03/11 03:45:35;;;;;;;9.52;6.68;;;10.30;31.50;;;;;;5004410;28;20211;-79
2021/03/11 03:48:03;;;;;;;10.48;6.93;;;10.20;31.60;;;;;;5021580;28;20298;-78
2021/03/11 03:50:32;;;;;;;9.35;6.82;;;10.30;31.70;;;;;;5022508;28;20319;-78
2021/03/11 03:53:00;;;;;;;11.50;7.47;;;10.30;32.00;;;;;;5018168;28;20227;-81
2021/03/11 03:55:29;;;;;;;9.32;6.45;;;10.30;31.90;;;;;;5022412;28;20199;-79
2021/03/11 03:57:57;;;;;;;8.02;5.85;;;10.30;32.20;;;;;;5021477;28;20239;-80
2021/03/11 04:00:25;;;;;;;9.23;6.45;;;10.30;32.40;;;;;;5024224;28;20286;-80
2021/03/11 04:02:55;;;;;;;8.60;5.75;;;10.30;33.00;;;;;;5023444;28;20235;-81
2021/03/11 04:05:24;;;;;;;10.50;6.30;;;10.30;33.10;;;;;;5031107;28;20196;-80
2021/03/11 04:07:52;;;;;;;9.23;5.32;;;10.30;33.70;;;;;;5034642;28;20231;-79
2021/03/11 04:10:19;;;;;;;9.15;5.70;;;10.30;34.00;;;;;;5022826;28;20238;-80
2021/03/11 04:12:48;;;;;;;6.50;5.07;;;10.30;34.20;;;;;;5021484;28;20224;-80
2021/03/11 04:15:15;;;;;;;10.00;5.35;;;10.40;34.30;;;;;;5025665;28;20593;-79
2021/03/11 04:17:43;;;;;;;9.05;6.30;;;10.30;34.50;;;;;;5032098;28;20671;-80
2021/03/11 04:20:11;;;;;;;7.90;5.13;;;10.40;34.60;;;;;;5042173;28;20214;-79
2021/03/11 04:22:39;;;;;;;6.72;4.53;;;10.40;34.40;;;;;;5041516;28;20707;-80
2021/03/11 04:25:07;;;;;;;9.27;5.18;;;10.50;34.20;;;;;;5041127;28;20237;-79
2021/03/11 04:27:34;;;;;;;9.50;5.40;;;10.40;34.20;;;;;;5040487;28;20293;-79
2021/03/11 04:30:05;;;;;;;8.50;4.85;;;10.50;35.00;;;;;;5041978;28;20207;-78
2021/03/11 04:32:34;;;;;;;9.77;5.15;;;10.50;33.70;;;;;;5043315;28;20246;-79
2021/03/11 04:35:01;;;;;;;10.48;5.38;;;10.50;33.50;;;;;;5040097;28;20695;-77
2021/03/11 04:37:28;;;;;;;8.35;5.20;;;10.60;33.40;;;;;;5041862;28;20234;-78
2021/03/11 04:39:55;;;;;;;10.15;5.55;;;10.60;33.50;;;;;;5049693;28;20255;-79
2021/03/11 04:42:21;;;;;;;8.00;4.97;;;10.60;33.40;;;;;;5055876;28;20204;-79
2021/03/11 04:44:48;;;;;;;6.00;4.70;;;10.60;33.20;;;;;;5056279;28;20234;-80
2021/03/11 04:47:15;;;;;;;10.60;4.75;;;10.60;33.90;;;;;;5055017;28;20211;-79
2021/03/11 04:49:42;;;;;;;10.32;5.05;;;10.70;33.30;;;;;;5055295;28;20198;-79
2021/03/11 04:52:10;;;;;;;7.30;5.05;;;10.60;33.20;;;;;;5051982;28;20219;-78
2021/03/11 04:54:37;;;;;;;7.53;4.35;;;10.70;33.20;;;;;;5041412;28;20222;-78
2021/03/11 04:57:04;;;;;;;6.25;5.40;;;10.70;33.10;;;;;;5046443;28;20207;-79
2021/03/11 04:59:31;;;;;;;9.30;5.32;;;10.70;33.20;;;;;;5054917;28;20191;-78
2021/03/11 05:02:00;;;;;;;5.78;4.10;;;10.60;33.10;;;;;;5062690;28;20190;-78
2021/03/11 05:04:28;;;;;;;8.80;5.05;;;10.60;33.20;;;;;;5062524;28;20207;-80
2021/03/11 05:06:54;;;;;;;10.27;4.75;;;10.70;33.30;;;;;;5062598;28;20183;-80
2021/03/11 05:09:21;;;;;;;6.22;4.38;;;10.70;33.30;;;;;;5062128;28;20191;-80
2021/03/11 05:11:48;;;;;;;7.00;4.15;;;10.70;33.50;;;;;;5061937;28;20203;-80
2021/03/11 05:14:14;;;;;;;5.50;4.35;;;10.70;33.60;;;;;;5061793;28;20207;-81
2021/03/11 05:16:41;;;;;;;6.07;4.75;;;10.70;33.80;;;;;;5061802;28;20191;-79
2021/03/11 05:19:07;;;;;;;7.30;4.40;;;10.70;34.30;;;;;;5061828;28;20176;-79
2021/03/11 05:21:34;;;;;;;4.55;3.80;;;10.70;35.30;;;;;;5060235;28;20202;-80
2021/03/11 05:24:02;;;;;;;8.23;4.38;;;10.60;35.80;;;;;;5056607;28;20234;-78
2021/03/11 05:26:28;;;;;;;6.63;4.05;;;10.60;36.30;;;;;;5052519;28;20662;-78
2021/03/11 05:28:55;;;;;;;5.50;3.75;;;10.60;36.80;;;;;;5053387;28;20207;-77
2021/03/11 05:31:21;;;;;;;5.35;4.10;;;10.60;37.50;;;;;;5052694;28;20219;-77
2021/03/11 05:33:48;;;;;;;4.68;3.85;;;10.60;37.70;;;;;;5052345;28;20231;-78
2021/03/11 05:36:14;;;;;;;4.55;3.50;;;10.60;38.10;;;;;;5054441;28;20207;-78
2021/03/11 05:38:45;;;;;;;7.63;3.60;;;10.60;38.70;;;;;;5051342;28;20207;-78
2021/03/11 05:41:13;;;;;;;5.20;3.70;;;10.60;39.10;;;;;;5052002;28;20253;-77
2021/03/11 05:43:41;;;;;;;7.30;3.70;;;10.60;39.60;;;;;;5049209;28;20242;-78
2021/03/11 05:46:09;;;;;;;4.18;3.42;;;10.50;40.00;;;;;;5049985;28;20241;-77
2021/03/11 05:48:37;;;;;;;4.65;3.20;;;10.50;40.00;;;;;;5048402;28;20206;-78
2021/03/11 05:51:04;;;;;;;5.97;3.55;;;10.60;40.60;;;;;;5048992;28;20223;-80
2021/03/11 05:53:33;;;;;;;5.00;3.35;;;10.50;40.00;;;;;;5048747;28;20686;-78
2021/03/11 05:56:01;;;;;;;5.90;2.80;;;10.60;39.70;;;;;;5048572;28;20215;-80
2021/03/11 05:58:27;;;;;;;3.33;2.97;;;10.60;39.60;;;;;;5054351;28;20211;-79
2021/03/11 06:00:54;;;;;;;4.97;3.33;;;10.60;39.60;;;;;;5050716;28;20235;-79
2021/03/11 06:03:23;;;;;;;4.35;2.80;;;10.70;39.50;;;;;;5041466;28;20305;-77
2021/03/11 06:05:50;;;;;;;3.10;2.80;;;10.70;39.30;;;;;;5040222;28;20290;-78
2021/03/11 06:08:21;;;;;;;3.53;2.60;;;10.70;39.10;;;;;;5041093;28;20743;-80
2021/03/11 06:10:54;;;;;;;3.25;2.75;;;10.70;39.30;;;;;;5051860;28;20239;-78
2021/03/11 06:13:23;;;;;;;3.08;2.42;;;10.80;39.30;;;;;;5049912;28;20270;-78
2021/03/11 06:15:55;;;;;;;4.15;3.13;;;10.80;39.10;;;;;;5049767;28;20235;-78
2021/03/11 06:18:22;;;;;;;5.82;2.78;;;10.80;39.20;;;;;;5052124;28;20210;-79
2021/03/11 06:20:48;;;;;;;3.60;2.70;;;10.90;39.30;;;;;;5049250;28;20199;-78
2021/03/11 06:23:15;;;;;;;3.78;2.72;;;10.90;39.30;;;;;;5051979;28;20234;-78
2021/03/11 06:25:42;;;;;;;6.85;3.15;;;10.90;39.40;;;;;;5046710;28;20523;-77
2021/03/11 06:28:09;;;;;;;2.53;2.33;;;10.90;39.40;;;;;;5037564;28;20226;-78
2021/03/11 06:30:39;;;;;;;3.85;2.55;;;10.90;39.40;;;;;;5037111;28;20262;-79
2021/03/11 06:33:06;;;;;;;3.13;2.13;;;11.00;39.50;;;;;;5038647;28;20243;-78
2021/03/11 06:35:34;;;;;;;4.43;2.75;;;11.00;39.40;;;;;;5036826;28;20752;-77
2021/03/11 06:38:00;;;;;;;2.97;2.50;;;11.00;40.20;;;;;;5038694;28;20211;-78
2021/03/11 06:40:29;;;;;;;2.35;2.15;;;11.10;39.50;;;;;;5040547;28;20210;-78
2021/03/11 06:43:08;;;;;;;2.40;2.20;;;11.00;39.60;;;;;;5039337;28;20307;-78
2021/03/11 06:45:36;;;;;;;3.60;2.40;;;11.10;39.80;;;;;;5032615;28;20260;-77
2021/03/11 06:48:25;;;;;;;2.70;2.30;;;11.10;39.80;;;;;;5022372;28;20219;-79
2021/03/11 06:50:52;;;;;;;3.47;2.70;;;11.10;39.50;;;;;;5021256;28;20381;-78
2021/03/11 06:53:19;;;;;;;6.20;2.70;;;11.20;39.60;;;;;;5020388;28;20236;-78
2021/03/11 06:55:45;;;;;;;3.40;2.53;;;11.20;39.50;;;;;;5020603;28;20235;-78
2021/03/11 06:58:16;;;;;;;6.28;2.25;;;11.20;39.60;;;;;;5020906;28;20299;-78
2021/03/11 07:00:44;;;;;;;2.67;2.28;;;11.30;39.30;;;;;;5024284;28;20272;-79
2021/03/11 07:03:10;;;;;;;2.97;2.15;;;11.30;39.30;;;;;;5028555;28;20235;-79
2021/03/11 07:05:41;;;;;;;2.40;1.80;;;11.40;39.30;;;;;;5031611;28;20219;-78
2021/03/11 07:08:09;;;;;;;3.05;1.95;;;11.40;39.20;;;;;;5026381;28;20196;-79
2021/03/11 07:10:36;;;;;;;2.55;2.00;;;11.50;39.30;;;;;;5032482;28;20248;-79
2021/03/11 07:13:04;;;;;;;5.40;2.38;;;11.50;39.00;;;;;;5033033;28;20239;-79
2021/03/11 07:15:32;;;;;;;2.92;2.30;;;11.60;39.00;;;;;;5031543;28;20221;-77
2021/03/11 07:18:00;;;;;;;2.80;2.60;;;11.70;38.90;;;;;;5047313;28;20195;-79
2021/03/11 07:20:27;;;;;;;3.40;2.50;;;11.70;38.70;;;;;;5050010;28;20186;-78
2021/03/11 07:23:02;;;;;;;5.20;2.72;;;11.70;38.70;;;;;;5051956;28;20231;-78
2021/03/11 07:25:31;;;;;;;2.83;2.30;;;11.70;38.80;;;;;;5044103;28;20733;-78
2021/03/11 07:27:59;;;;;;;2.90;2.65;;;11.80;38.70;;;;;;5043000;28;20237;-78
2021/03/11 07:30:26;;;;;;;1.45;1.33;;;11.80;38.70;;;;;;5043753;28;20258;-78
2021/03/11 07:33:00;;;;;;;3.33;2.20;;;11.90;38.70;;;;;;5046551;28;20298;-79
2021/03/11 07:35:28;;;;;;;3.08;2.10;;;11.90;38.70;;;;;;5043928;28;20196;-78
2021/03/11 07:37:58;;;;;;;2.58;2.20;;;11.90;38.70;;;;;;5046730;28;20215;-79
2021/03/11 07:40:26;;;;;;;2.78;1.90;;;12.00;38.80;;;;;;5042199;28;20602;-79
2021/03/11 07:42:52;;;;;;;1.65;1.55;;;11.90;38.90;;;;;;5040294;28;20227;-79
2021/03/11 07:45:19;;;;;;;4.70;1.80;;;12.00;39.00;;;;;;5017941;28;20290;-79
2021/03/11 07:47:46;;;;;;;2.97;1.77;;;12.00;38.90;;;;;;5024208;28;20212;-79
2021/03/11 07:50:15;;;;;;;4.30;1.92;;;12.10;39.10;;;;;;5026239;28;20596;-79
2021/03/11 07:52:42;;;;;;;2.90;1.88;;;12.10;39.20;;;;;;5026360;28;20285;-78
2021/03/11 07:55:11;;;;;;;2.20;1.65;;;12.10;39.50;;;;;;5027094;28;20211;-80
2021/03/11 07:57:40;;;;;;;3.92;1.50;;;12.10;39.60;;;;;;5026430;28;20295;-79
2021/03/11 08:00:09;;;;;;;2.65;1.90;;;12.10;39.80;;;;;;5034840;28;20207;-80
2021/03/11 08:02:39;;;;;;;4.20;1.88;;;12.10;39.80;;;;;;5033568;28;20291;-79
2021/03/11 08:05:06;;;;;;;2.42;1.70;;;12.10;39.90;;;;;;5047024;28;20218;-79
2021/03/11 08:07:43;;;;;;;3.22;2.22;;;12.10;40.10;;;;;;5031330;28;20226;-82
2021/03/11 08:10:27;;;;;;;13.90;2.42;;;12.10;40.30;;;;;;5027925;28;20234;-80
2021/03/11 08:12:53;;;;;;;2.83;2.22;;;12.10;40.40;;;;;;5028206;28;20265;-79
2021/03/11 08:15:32;;;;;;;3.55;2.20;;;12.20;40.40;;;;;;5024785;28;20255;-79
2021/03/11 08:17:59;;;;;;;2.28;1.50;;;12.20;40.40;;;;;;5027824;28;20193;-79
2021/03/11 08:20:39;;;;;;;2.72;1.75;;;12.20;40.10;;;;;;5025476;28;20199;-79
2021/03/11 08:23:12;;;;;;;2.38;1.90;;;12.20;40.10;;;;;;5039737;28;20291;-78
2021/03/11 08:25:46;;;;;;;2.60;1.88;;;12.20;40.20;;;;;;5052058;28;20261;-78
2021/03/11 08:28:40;;;;;;;4.07;2.00;;;12.20;40.10;;;;;;5037082;28;20668;-78
2021/03/11 08:31:08;;;;;;;5.43;2.03;;;12.20;40.50;;;;;;5028638;28;20703;-80
2021/03/11 08:33:55;;;;;;;3.90;1.80;;;12.20;40.40;;;;;;5030388;28;20240;-78
2021/03/11 08:36:30;;;;;;;2.60;2.13;;;12.20;40.30;;;;;;5028935;28;20712;-79
2021/03/11 08:38:57;;;;;;;3.95;2.20;;;12.30;40.10;;;;;;5047989;28;20198;-78
2021/03/11 08:41:31;;;;;;;4.45;1.98;;;12.30;40.20;;;;;;5046468;28;20203;-81
2021/03/11 08:44:01;;;;;;;7.32;2.15;;;12.30;40.40;;;;;;5030726;28;20265;-82
2021/03/11 08:46:51;;;;;;;2.78;1.95;;;12.30;40.30;;;;;;5025749;28;20222;-80
2021/03/11 08:49:38;;;;;;;3.58;2.40;;;12.30;40.40;;;;;;5024400;28;20204;-78
2021/03/11 08:52:05;;;;;;;2.88;2.00;;;12.30;40.20;;;;;;5034918;28;20250;-78
2021/03/11 08:54:33;;;;;;;2.80;1.90;;;12.50;40.10;;;;;;5030063;28;20255;-78
2021/03/11 08:56:59;;;;;;;4.88;2.05;;;12.50;39.80;;;;;;5025654;28;20211;-78
2021/03/11 08:59:47;;;;;;;1.80;1.70;;;12.50;40.40;;;;;;5031701;28;20298;-79
2021/03/11 09:02:31;;;;;;;2.25;1.80;;;12.50;42.30;;;;;;5038432;28;20227;-78
2021/03/11 09:04:58;;;;;;;2.60;1.70;;;12.40;43.80;;;;;;5032402;28;20192;-79
2021/03/11 09:07:35;;;;;;;3.45;1.90;;;12.40;44.40;;;;;;5025407;28;20208;-77
2021/03/11 09:10:16;;;;;;;2.20;2.00;;;12.50;44.40;;;;;;5037672;28;20650;-77
2021/03/11 09:12:42;;;;;;;3.97;1.80;;;12.60;43.90;;;;;;5044896;28;20302;-77
2021/03/11 09:15:10;;;;;;;2.20;1.70;;;12.60;44.00;;;;;;5039134;28;20235;-76
2021/03/11 09:17:39;;;;;;;2.22;2.00;;;12.60;44.10;;;;;;5025796;28;20210;-78
2021/03/11 09:20:07;;;;;;;3.45;2.15;;;12.60;43.60;;;;;;5018300;28;20215;-76
2021/03/11 09:22:36;;;;;;;4.13;2.78;;;12.70;44.00;;;;;;5018906;28;20216;-79
2021/03/11 09:25:13;;;;;;;4.05;2.67;;;12.70;44.10;;;;;;5021918;28;20212;-77
2021/03/11 09:27:54;;;;;;;2.45;1.63;;;12.70;42.70;;;;;;5020528;28;20307;-76
2021/03/11 09:30:22;;;;;;;2.80;1.70;;;12.90;42.20;;;;;;5026987;28;20275;-76
2021/03/11 09:32:49;;;;;;;3.72;1.63;;;13.20;42.50;;;;;;5032228;28;20228;-77
2021/03/11 09:35:16;;;;;;;8.45;1.63;;;13.40;42.30;;;;;;5027011;28;20218;-77
2021/03/11 09:37:54;;;;;;;5.25;1.75;;;13.40;41.70;;;;;;5038398;28;20234;-77
2021/03/11 09:40:26;;;;;;;2.85;1.48;;;13.40;42.40;;;;;;5031167;28;20207;-77
2021/03/11 09:43:14;;;;;;;1.60;1.30;;;13.50;41.90;;;;;;5017267;28;20234;-75
2021/03/11 09:45:44;;;;;;;5.13;1.40;;;13.60;42.90;;;;;;5018130;28;20333;-77
2021/03/11 09:48:14;;;;;;;3.38;1.63;;;13.50;42.80;;;;;;5020749;28;20239;-76
2021/03/11 09:50:53;;;;;;;8.27;1.63;;;13.60;42.90;;;;;;5029494;28;20227;-77
2021/03/11 09:53:20;;;;;;;1.65;1.55;;;13.60;42.90;;;;;;5041093;28;20279;-77
2021/03/11 09:55:52;;;;;;;3.35;1.60;;;13.50;43.30;;;;;;5033107;28;20204;-76
2021/03/11 09:58:19;;;;;;;5.40;2.22;;;13.60;43.60;;;;;;5020605;28;20212;-76
2021/03/11 10:00:47;;;;;;;1.50;1.40;;;13.40;44.90;;;;;;5027698;28;20270;-78
2021/03/11 10:03:22;;;;;;;3.10;1.20;;;13.20;46.20;;;;;;5052612;28;20321;-76
2021/03/11 10:05:58;;;;;;;2.40;1.45;;;13.00;47.20;;;;;;5056232;28;20270;-75
2021/03/11 10:08:33;;;;;;;2.17;1.60;;;13.10;48.00;;;;;;5055187;28;20211;-76
2021/03/11 10:11:09;;;;;;;4.13;1.50;;;12.90;51.00;;;;;;5050948;28;20230;-78
2021/03/11 10:13:38;;;;;;;3.25;1.23;;;12.60;53.30;;;;;;5041079;28;20262;-76
2021/03/11 10:16:05;;;;;;;1.70;1.30;;;12.30;58.10;;;;;;5039625;28;20214;-77
2021/03/11 10:18:32;;;;;;;1.42;1.20;;;12.00;61.90;;;;;;5039302;28;20298;-78
2021/03/11 10:21:16;;;;;;;2.90;1.40;;;11.70;67.00;;;;;;5039115;28;20792;-78
2021/03/11 10:23:51;;;;;;;5.13;1.33;;;11.50;72.50;;;;;;5037798;28;20281;-79
2021/03/11 10:26:20;;;;;;;2.85;1.90;;;11.20;77.40;;;;;;5043502;28;20271;-78
2021/03/11 10:28:49;;;;;;;4.65;1.80;;;11.10;79.60;;;;;;5050553;28;20253;-81
2021/03/11 10:31:16;;;;;;;3.40;1.75;;;11.00;82.60;;;;;;5046779;28;20251;-79
2021/03/11 10:33:43;;;;;;;4.28;1.70;;;10.90;85.50;;;;;;5037756;28;20305;-79
2021/03/11 10:36:15;;;;;;;4.97;2.08;;;10.80;86.60;;;;;;5036816;28;20203;-78
2021/03/11 10:38:42;;;;;;;3.25;1.75;;;10.70;89.50;;;;;;5038176;28;20205;-78
2021/03/11 10:41:11;;;;;;;2.78;2.20;;;10.70;90.40;;;;;;5040232;28;20187;-80
2021/03/11 10:43:40;;;;;;;2.25;1.90;;;10.60;91.50;;;;;;5040407;28;20262;-79
2021/03/11 10:46:06;;;;;;;2.60;1.70;;;10.60;92.20;;;;;;5050551;28;20242;-80
2021/03/11 10:48:50;;;;;;;4.70;1.92;;;10.60;93.00;;;;;;5059737;28;20662;-81
2021/03/11 10:51:18;;;;;;;1.80;1.70;;;10.60;93.50;;;;;;5061719;28;20234;-77
2021/03/11 10:53:45;;;;;;;3.97;2.60;;;10.50;93.80;;;;;;5061117;28;20257;-80
2021/03/11 10:56:11;;;;;;;3.80;1.85;;;10.50;94.70;;;;;;5058959;28;20304;-78
2021/03/11 10:58:39;;;;;;;2.92;2.25;;;10.60;94.60;;;;;;5057029;28;20464;-78
2021/03/11 11:01:08;;;;;;;2.05;1.70;;;10.60;95.10;;;;;;5056532;28;20203;-79
2021/03/11 11:03:35;;;;;;;2.28;1.73;;;10.60;95.10;;;;;;5058127;28;20272;-78
2021/03/11 11:06:01;;;;;;;2.55;1.70;;;10.70;95.20;;;;;;5048371;28;20252;-78
2021/03/11 11:08:28;;;;;;;2.33;1.85;;;10.70;95.20;;;;;;5036766;28;20206;-78
2021/03/11 11:10:54;;;;;;;3.80;2.00;;;10.80;96.00;;;;;;5036312;28;20757;-78
2021/03/11 11:13:21;;;;;;;2.97;2.05;;;10.80;96.20;;;;;;5034449;28;20392;-77
2021/03/11 11:15:48;;;;;;;4.40;2.05;;;10.80;96.50;;;;;;5039459;28;20655;-79
2021/03/11 11:18:15;;;;;;;3.72;2.30;;;10.80;96.80;;;;;;5055560;28;20589;-78
2021/03/11 11:20:41;;;;;;;2.38;2.25;;;10.80;96.90;;;;;;5055481;28;20222;-76
2021/03/11 11:23:08;;;;;;;2.83;2.10;;;10.90;96.40;;;;;;5056044;28;20258;-79
2021/03/11 11:25:35;;;;;;;4.38;2.28;;;10.90;96.70;;;;;;5053677;28;20200;-76
2021/03/11 11:28:01;;;;;;;2.10;1.88;;;10.90;96.20;;;;;;5040030;28;20207;-78
2021/03/11 11:30:28;;;;;;;4.65;1.80;;;10.90;96.40;;;;;;5038924;28;20381;-77
2021/03/11 11:32:56;;;;;;;5.55;2.08;;;10.90;96.20;;;;;;5054227;28;20723;-77
2021/03/11 11:35:23;;;;;;;2.50;2.30;;;11.00;96.20;;;;;;5057410;28;20207;-78
2021/03/11 11:37:50;;;;;;;2.72;2.08;;;11.10;96.20;;;;;;5057015;28;20221;-78
2021/03/11 11:40:17;;;;;;;2.78;1.70;;;11.20;96.50;;;;;;5053385;28;20202;-78
2021/03/11 11:42:44;;;;;;;1.90;1.67;;;11.30;95.70;;;;;;5040691;28;20390;-77
2021/03/11 11:45:12;;;;;;;2.88;1.73;;;11.30;95.40;;;;;;5040860;28;20544;-78
2021/03/11 11:47:39;;;;;;;2.10;1.90;;;11.30;95.20;;;;;;5067042;28;20206;-79
2021/03/11 11:50:08;;;;;;;2.67;2.13;;;11.30;94.30;;;;;;5063774;28;20207;-79
2021/03/11 11:52:36;;;;;;;4.10;1.88;;;11.20;93.60;;;;;;5046453;28;20309;-80
2021/03/11 11:55:03;;;;;;;2.92;1.38;;;11.20;93.90;;;;;;5060524;28;20207;-78
2021/03/11 11:57:30;;;;;;;2.20;1.33;;;11.20;93.70;;;;;;5058010;28;20241;-79
2021/03/11 11:59:57;;;;;;;3.58;2.58;;;11.40;93.50;;;;;;5058369;28;20580;-78
2021/03/11 12:02:24;;;;;;;2.08;1.83;;;11.40;92.40;;;;;;5060033;28;20663;-80
2021/03/11 12:04:51;;;;;;;1.38;1.27;;;11.60;91.30;;;;;;5048415;28;20279;-80
2021/03/11 12:07:18;;;;;;;1.80;1.40;;;11.70;90.10;;;;;;5041007;28;20290;-78
2021/03/11 12:09:45;;;;;;;2.28;1.52;;;11.90;87.80;;;;;;5054156;28;20778;-78
2021/03/11 12:12:12;;;;;;;2.90;1.60;;;12.00;86.10;;;;;;5053524;28;20222;-77
2021/03/11 12:14:39;;;;;;;1.48;1.38;;;12.10;84.00;;;;;;5051356;28;20209;-78
2021/03/11 12:17:05;;;;;;;1.40;1.20;;;12.30;80.80;;;;;;5044928;28;20299;-78
2021/03/11 12:19:32;;;;;;;3.63;1.35;;;12.40;78.50;;;;;;5057207;28;20265;-78
2021/03/11 12:21:58;;;;;;;1.38;1.27;;;12.60;77.20;;;;;;5073777;28;20194;-78
2021/03/11 12:24:26;;;;;;;3.05;1.70;;;12.70;76.90;;;;;;5071800;28;20230;-78
2021/03/11 12:26:52;;;;;;;1.23;1.15;;;12.90;74.60;;;;;;5063112;28;20230;-78
2021/03/11 12:29:18;;;;;;;3.22;1.40;;;12.90;73.40;;;;;;5074225;28;20187;-77
2021/03/11 12:31:45;;;;;;;1.63;1.13;;;12.80;72.90;;;;;;5074031;28;20241;-78
2021/03/11 12:34:12;;;;;;;1.50;1.35;;;12.70;72.40;;;;;;5062223;28;20222;-80
2021/03/11 12:36:38;;;;;;;1.48;1.38;;;12.70;73.40;;;;;;5062151;28;20214;-79
2021/03/11 12:39:05;;;;;;;3.28;1.33;;;12.70;73.80;;;;;;5061694;28;20270;-78
2021/03/11 12:41:33;;;;;;;1.42;1.20;;;12.60;73.50;;;;;;5070536;28;20264;-80
2021/03/11 12:43:59;;;;;;;1.77;1.23;;;12.60;75.30;;;;;;5053343;28;20330;-79
2021/03/11 12:46:26;;;;;;;1.30;1.20;;;12.60;75.00;;;;;;5048479;28;20207;-78
2021/03/11 12:48:52;;;;;;;1.25;1.15;;;12.60;76.50;;;;;;5041590;28;20214;-76
2021/03/11 12:51:20;;;;;;;1.35;1.30;;;12.50;78.30;;;;;;5035357;28;20549;-78
2021/03/11 12:53:47;;;;;;;1.45;1.13;;;12.40;79.20;;;;;;5031969;28;20235;-78
2021/03/11 12:56:14;;;;;;;1.20;1.10;;;12.30;81.80;;;;;;5033011;28;20210;-78